Rechercher aéroport 
image banner adimage banner adimage banner ad
image banner ad

KSEG - Penn Valley

Situé à Selinsgrove, United States

ICAO - SEG, IATA -

Données fournies par Airmate  

Information générale

Coordonnées: N40°49'16" W76°51'51"
Élévation : 464 feet MSL.
Variation magnétique : -11° East
Voir autres Aéroports à Pennsylvania

Données opérationnelles

Special qualification required
Heure actuelle UTC:
Heure actuelle locale:
Météo
METAR: KSEG 131853Z AUTO 15008KT 10SM OVC040 24/19 A2988 RMK AO2 SLP116 T02440189
Voir NOTAMs / SUP AIP / TFR affectant cet aéroport [VIEW]
Fréquences de communication: [VIEW]

Pistes:

Identifiant RWYQFULongueur (ft)Largeur (ft)SurfaceLDA (ft)
17159°476075ASPH
35339°476075ASPH

Coordonnées de l'aéroport

Adresse: Selinsgrove United States

Autres services d'aviation

Écoles de pilotage

Energy Aviation

Energy Aviation
info@energyipt.com+1(570)374-7671

Vue satellite de KSEG